KDUA/DUA METAR and TAF weather

Enter ICAO airport designator
Station Type Date Time Source
KDUA METAR 2018/12/10 17:15 UTC NOAA

KDUA 101715Z AUTO 00000KT 10SM CLR 11/M02 A3042 RMK AO2


Station Type Date Time Source
KDUA Decoded METAR 2018/12/10 17:15 UTC NOAA

Durant, Eaker Field Airport, OK, United States (KDUA) 33-56-32N 096-23-40W
Dec 10, 2018 - 12:15 PM EST / 2018.12.10 1715 UTC
Wind: Calm:0
Visibility: 10 mile(s):0
Sky conditions: clear
Temperature: 51 F (11 C)
Dew Point: 28 F (-2 C)
Relative Humidity: 40%
Pressure (altimeter): 30.42 in. Hg (1030 hPa)
ob: KDUA 101715Z AUTO 00000KT 10SM CLR 11/M02 A3042 RMK AO2
cycle: 17

Station Type Date Time Source
KDUA TAF UTC NOAA

Error!


Example: see airport list